sensor_id;sensor_type;location;lat;lon;timestamp;P1;durP1;ratioP1;P2;durP2;ratioP2
7485;SDS011;3784;54.098;9.998;2023-04-07T00:02:00;8.07;;;7.27;;
7485;SDS011;3784;54.098;9.998;2023-04-07T00:04:27;7.23;;;6.27;;
7485;SDS011;3784;54.098;9.998;2023-04-07T00:06:54;8.40;;;7.50;;
7485;SDS011;3784;54.098;9.998;2023-04-07T00:09:20;7.77;;;6.97;;
7485;SDS011;3784;54.098;9.998;2023-04-07T00:11:47;7.50;;;6.80;;
7485;SDS011;3784;54.098;9.998;2023-04-07T00:14:13;7.67;;;6.87;;
7485;SDS011;3784;54.098;9.998;2023-04-07T00:16:40;7.53;;;6.73;;
7485;SDS011;3784;54.098;9.998;2023-04-07T00:19:07;7.40;;;6.70;;
7485;SDS011;3784;54.098;9.998;2023-04-07T00:21:33;6.90;;;6.20;;
7485;SDS011;3784;54.098;9.998;2023-04-07T00:24:00;6.90;;;6.20;;
7485;SDS011;3784;54.098;9.998;2023-04-07T00:26:26;7.80;;;6.30;;
7485;SDS011;3784;54.098;9.998;2023-04-07T00:28:57;8.50;;;6.30;;
7485;SDS011;3784;54.098;9.998;2023-04-07T00:31:24;6.97;;;6.27;;
7485;SDS011;3784;54.098;9.998;2023-04-07T00:33:51;6.20;;;5.60;;
7485;SDS011;3784;54.098;9.998;2023-04-07T00:36:18;6.90;;;6.20;;
7485;SDS011;3784;54.098;9.998;2023-04-07T00:38:45;6.30;;;5.70;;
7485;SDS011;3784;54.098;9.998;2023-04-07T00:41:11;7.13;;;6.23;;
7485;SDS011;3784;54.098;9.998;2023-04-07T00:43:38;7.63;;;5.97;;
7485;SDS011;3784;54.098;9.998;2023-04-07T00:46:05;6.47;;;5.73;;
7485;SDS011;3784;54.098;9.998;2023-04-07T00:48:31;6.37;;;5.73;;
7485;SDS011;3784;54.098;9.998;2023-04-07T00:50:58;6.83;;;6.10;;
7485;SDS011;3784;54.098;9.998;2023-04-07T00:53:24;7.77;;;6.33;;
7485;SDS011;3784;54.098;9.998;2023-04-07T00:55:51;6.33;;;5.77;;
7485;SDS011;3784;54.098;9.998;2023-04-07T00:58:17;6.83;;;5.70;;
7485;SDS011;3784;54.098;9.998;2023-04-07T01:00:54;7.10;;;5.53;;
7485;SDS011;3784;54.098;9.998;2023-04-07T01:03:55;6.10;;;5.50;;
7485;SDS011;3784;54.098;9.998;2023-04-07T01:06:29;6.27;;;5.50;;
7485;SDS011;3784;54.098;9.998;2023-04-07T01:09:18;5.53;;;5.03;;
7485;SDS011;3784;54.098;9.998;2023-04-07T01:11:52;5.67;;;4.97;;
7485;SDS011;3784;54.098;9.998;2023-04-07T01:14:25;9.97;;;5.13;;
7485;SDS011;3784;54.098;9.998;2023-04-07T01:16:53;5.93;;;5.17;;
7485;SDS011;3784;54.098;9.998;2023-04-07T01:19:33;6.07;;;5.13;;
7485;SDS011;3784;54.098;9.998;2023-04-07T01:22:02;6.97;;;5.57;;
7485;SDS011;3784;54.098;9.998;2023-04-07T01:30:23;5.50;;;5.00;;
7485;SDS011;3784;54.098;9.998;2023-04-07T01:32:53;5.37;;;4.87;;
7485;SDS011;3784;54.098;9.998;2023-04-07T01:35:21;5.73;;;5.10;;
7485;SDS011;3784;54.098;9.998;2023-04-07T01:37:49;5.63;;;5.13;;
7485;SDS011;3784;54.098;9.998;2023-04-07T01:40:16;5.70;;;5.07;;
7485;SDS011;3784;54.098;9.998;2023-04-07T01:42:43;7.03;;;5.40;;
7485;SDS011;3784;54.098;9.998;2023-04-07T01:45:11;5.60;;;5.10;;
7485;SDS011;3784;54.098;9.998;2023-04-07T01:47:37;7.73;;;5.10;;
7485;SDS011;3784;54.098;9.998;2023-04-07T01:50:04;5.30;;;4.53;;
7485;SDS011;3784;54.098;9.998;2023-04-07T01:52:34;6.67;;;5.20;;
7485;SDS011;3784;54.098;9.998;2023-04-07T01:55:02;5.20;;;4.70;;
7485;SDS011;3784;54.098;9.998;2023-04-07T01:57:29;5.80;;;5.03;;
7485;SDS011;3784;54.098;9.998;2023-04-07T01:59:56;6.27;;;4.90;;
7485;SDS011;3784;54.098;9.998;2023-04-07T02:02:22;5.50;;;5.00;;
7485;SDS011;3784;54.098;9.998;2023-04-07T02:04:59;5.33;;;4.83;;
7485;SDS011;3784;54.098;9.998;2023-04-07T02:07:49;5.77;;;5.17;;
7485;SDS011;3784;54.098;9.998;2023-04-07T02:10:19;5.43;;;4.80;;
7485;SDS011;3784;54.098;9.998;2023-04-07T02:12:48;5.23;;;4.73;;
7485;SDS011;3784;54.098;9.998;2023-04-07T02:15:14;8.47;;;4.97;;
7485;SDS011;3784;54.098;9.998;2023-04-07T02:17:42;6.57;;;5.07;;
7485;SDS011;3784;54.098;9.998;2023-04-07T02:20:11;5.27;;;4.70;;
7485;SDS011;3784;54.098;9.998;2023-04-07T02:22:39;6.40;;;4.90;;
7485;SDS011;3784;54.098;9.998;2023-04-07T02:25:25;5.70;;;5.07;;
7485;SDS011;3784;54.098;9.998;2023-04-07T02:27:56;5.60;;;5.10;;
7485;SDS011;3784;54.098;9.998;2023-04-07T02:30:24;6.53;;;5.10;;
7485;SDS011;3784;54.098;9.998;2023-04-07T02:32:51;6.37;;;4.90;;
7485;SDS011;3784;54.098;9.998;2023-04-07T02:35:18;5.90;;;5.23;;
7485;SDS011;3784;54.098;9.998;2023-04-07T02:37:45;6.97;;;4.83;;
7485;SDS011;3784;54.098;9.998;2023-04-07T02:40:12;5.80;;;5.27;;
7485;SDS011;3784;54.098;9.998;2023-04-07T02:42:39;5.63;;;4.80;;
7485;SDS011;3784;54.098;9.998;2023-04-07T02:45:06;4.80;;;4.07;;
7485;SDS011;3784;54.098;9.998;2023-04-07T02:47:34;5.50;;;4.90;;
7485;SDS011;3784;54.098;9.998;2023-04-07T02:50:01;5.10;;;4.60;;
7485;SDS011;3784;54.098;9.998;2023-04-07T02:52:27;5.37;;;4.73;;
7485;SDS011;3784;54.098;9.998;2023-04-07T02:54:54;6.90;;;4.87;;
7485;SDS011;3784;54.098;9.998;2023-04-07T02:57:21;5.27;;;4.77;;
7485;SDS011;3784;54.098;9.998;2023-04-07T02:59:47;6.20;;;4.57;;
7485;SDS011;3784;54.098;9.998;2023-04-07T03:02:14;6.10;;;4.63;;
7485;SDS011;3784;54.098;9.998;2023-04-07T03:04:41;7.00;;;5.00;;
7485;SDS011;3784;54.098;9.998;2023-04-07T03:07:07;6.37;;;4.73;;
7485;SDS011;3784;54.098;9.998;2023-04-07T03:09:34;6.33;;;5.30;;
7485;SDS011;3784;54.098;9.998;2023-04-07T03:12:00;9.73;;;5.00;;
7485;SDS011;3784;54.098;9.998;2023-04-07T03:14:27;5.23;;;4.30;;
7485;SDS011;3784;54.098;9.998;2023-04-07T03:16:53;5.63;;;4.80;;
7485;SDS011;3784;54.098;9.998;2023-04-07T03:19:21;6.30;;;4.57;;
7485;SDS011;3784;54.098;9.998;2023-04-07T03:21:48;5.13;;;4.27;;
7485;SDS011;3784;54.098;9.998;2023-04-07T03:24:14;5.43;;;4.93;;
7485;SDS011;3784;54.098;9.998;2023-04-07T03:26:41;6.43;;;4.80;;
7485;SDS011;3784;54.098;9.998;2023-04-07T03:29:08;4.80;;;4.30;;
7485;SDS011;3784;54.098;9.998;2023-04-07T03:31:34;7.20;;;4.80;;
7485;SDS011;3784;54.098;9.998;2023-04-07T03:34:03;6.00;;;5.40;;
7485;SDS011;3784;54.098;9.998;2023-04-07T03:36:30;6.30;;;5.00;;
7485;SDS011;3784;54.098;9.998;2023-04-07T03:38:59;6.93;;;5.37;;
7485;SDS011;3784;54.098;9.998;2023-04-07T03:41:25;5.90;;;5.10;;
7485;SDS011;3784;54.098;9.998;2023-04-07T03:43:52;6.33;;;5.37;;
7485;SDS011;3784;54.098;9.998;2023-04-07T03:46:19;5.53;;;5.03;;
7485;SDS011;3784;54.098;9.998;2023-04-07T03:48:46;5.67;;;5.07;;
7485;SDS011;3784;54.098;9.998;2023-04-07T03:51:13;5.83;;;5.23;;
7485;SDS011;3784;54.098;9.998;2023-04-07T03:53:40;5.20;;;4.80;;
7485;SDS011;3784;54.098;9.998;2023-04-07T03:56:07;5.93;;;5.10;;
7485;SDS011;3784;54.098;9.998;2023-04-07T03:58:33;5.80;;;4.80;;
7485;SDS011;3784;54.098;9.998;2023-04-07T04:01:00;6.30;;;5.00;;
7485;SDS011;3784;54.098;9.998;2023-04-07T04:03:27;6.23;;;5.20;;
7485;SDS011;3784;54.098;9.998;2023-04-07T04:05:53;5.27;;;4.53;;
7485;SDS011;3784;54.098;9.998;2023-04-07T04:08:20;7.00;;;5.10;;
7485;SDS011;3784;54.098;9.998;2023-04-07T04:10:46;5.87;;;5.00;;
7485;SDS011;3784;54.098;9.998;2023-04-07T04:13:13;5.43;;;4.77;;
7485;SDS011;3784;54.098;9.998;2023-04-07T04:15:39;5.20;;;4.70;;
7485;SDS011;3784;54.098;9.998;2023-04-07T04:18:06;5.50;;;5.00;;
7485;SDS011;3784;54.098;9.998;2023-04-07T04:20:33;6.03;;;4.83;;
7485;SDS011;3784;54.098;9.998;2023-04-07T04:22:59;5.93;;;5.33;;
7485;SDS011;3784;54.098;9.998;2023-04-07T04:25:26;6.07;;;5.10;;
7485;SDS011;3784;54.098;9.998;2023-04-07T04:27:52;5.83;;;4.93;;
7485;SDS011;3784;54.098;9.998;2023-04-07T04:30:18;5.30;;;4.80;;
7485;SDS011;3784;54.098;9.998;2023-04-07T04:32:45;5.23;;;4.73;;
7485;SDS011;3784;54.098;9.998;2023-04-07T04:35:12;5.70;;;5.17;;
7485;SDS011;3784;54.098;9.998;2023-04-07T04:37:39;6.50;;;5.10;;
7485;SDS011;3784;54.098;9.998;2023-04-07T04:40:05;5.43;;;4.57;;
7485;SDS011;3784;54.098;9.998;2023-04-07T04:42:33;5.27;;;4.77;;
7485;SDS011;3784;54.098;9.998;2023-04-07T04:45:01;8.13;;;4.70;;
7485;SDS011;3784;54.098;9.998;2023-04-07T04:47:27;5.10;;;4.70;;
7485;SDS011;3784;54.098;9.998;2023-04-07T04:49:54;5.53;;;4.93;;
7485;SDS011;3784;54.098;9.998;2023-04-07T04:52:20;6.13;;;5.30;;
7485;SDS011;3784;54.098;9.998;2023-04-07T04:54:47;5.97;;;5.13;;
7485;SDS011;3784;54.098;9.998;2023-04-07T04:57:13;5.27;;;4.77;;
7485;SDS011;3784;54.098;9.998;2023-04-07T04:59:40;5.53;;;5.03;;
7485;SDS011;3784;54.098;9.998;2023-04-07T05:02:07;6.57;;;5.60;;
7485;SDS011;3784;54.098;9.998;2023-04-07T05:04:34;6.00;;;5.23;;
7485;SDS011;3784;54.098;9.998;2023-04-07T05:07:02;5.50;;;5.00;;
7485;SDS011;3784;54.098;9.998;2023-04-07T05:09:29;6.00;;;4.63;;
7485;SDS011;3784;54.098;9.998;2023-04-07T05:11:56;6.43;;;4.87;;
7485;SDS011;3784;54.098;9.998;2023-04-07T05:14:23;5.77;;;5.17;;
7485;SDS011;3784;54.098;9.998;2023-04-07T05:16:49;6.00;;;4.90;;
7485;SDS011;3784;54.098;9.998;2023-04-07T05:19:16;5.43;;;5.00;;
7485;SDS011;3784;54.098;9.998;2023-04-07T05:21:43;6.90;;;5.43;;
7485;SDS011;3784;54.098;9.998;2023-04-07T05:24:09;7.10;;;5.30;;
7485;SDS011;3784;54.098;9.998;2023-04-07T05:26:35;6.93;;;5.73;;
7485;SDS011;3784;54.098;9.998;2023-04-07T05:29:02;6.10;;;5.00;;
7485;SDS011;3784;54.098;9.998;2023-04-07T05:31:28;6.87;;;5.47;;
7485;SDS011;3784;54.098;9.998;2023-04-07T05:33:55;8.40;;;5.57;;
7485;SDS011;3784;54.098;9.998;2023-04-07T05:36:22;5.93;;;5.33;;
7485;SDS011;3784;54.098;9.998;2023-04-07T05:38:49;8.10;;;5.63;;
7485;SDS011;3784;54.098;9.998;2023-04-07T05:41:15;6.40;;;5.70;;
7485;SDS011;3784;54.098;9.998;2023-04-07T05:43:42;6.43;;;5.47;;
7485;SDS011;3784;54.098;9.998;2023-04-07T05:46:08;6.17;;;5.50;;
7485;SDS011;3784;54.098;9.998;2023-04-07T05:48:35;6.00;;;5.40;;
7485;SDS011;3784;54.098;9.998;2023-04-07T05:51:01;7.20;;;5.53;;
7485;SDS011;3784;54.098;9.998;2023-04-07T05:53:28;5.93;;;5.33;;
7485;SDS011;3784;54.098;9.998;2023-04-07T05:55:54;6.60;;;5.93;;
7485;SDS011;3784;54.098;9.998;2023-04-07T05:58:21;6.47;;;5.83;;
7485;SDS011;3784;54.098;9.998;2023-04-07T06:00:47;7.93;;;6.10;;
7485;SDS011;3784;54.098;9.998;2023-04-07T06:03:14;6.23;;;5.60;;
7485;SDS011;3784;54.098;9.998;2023-04-07T06:05:40;7.63;;;5.80;;
7485;SDS011;3784;54.098;9.998;2023-04-07T06:08:08;5.60;;;5.10;;
7485;SDS011;3784;54.098;9.998;2023-04-07T06:10:36;6.17;;;5.57;;
7485;SDS011;3784;54.098;9.998;2023-04-07T06:13:02;9.30;;;5.57;;
7485;SDS011;3784;54.098;9.998;2023-04-07T06:15:29;7.90;;;5.90;;
7485;SDS011;3784;54.098;9.998;2023-04-07T06:17:55;7.50;;;5.87;;
7485;SDS011;3784;54.098;9.998;2023-04-07T06:20:22;6.00;;;5.43;;
7485;SDS011;3784;54.098;9.998;2023-04-07T06:22:49;7.13;;;5.97;;
7485;SDS011;3784;54.098;9.998;2023-04-07T06:25:15;6.90;;;6.00;;
7485;SDS011;3784;54.098;9.998;2023-04-07T06:27:42;5.87;;;5.33;;
7485;SDS011;3784;54.098;9.998;2023-04-07T06:30:09;6.70;;;6.00;;
7485;SDS011;3784;54.098;9.998;2023-04-07T06:32:35;7.13;;;5.73;;
7485;SDS011;3784;54.098;9.998;2023-04-07T06:35:03;6.37;;;5.77;;
7485;SDS011;3784;54.098;9.998;2023-04-07T06:37:29;6.90;;;6.07;;
7485;SDS011;3784;54.098;9.998;2023-04-07T06:39:56;6.53;;;5.83;;
7485;SDS011;3784;54.098;9.998;2023-04-07T06:42:22;6.87;;;6.13;;
7485;SDS011;3784;54.098;9.998;2023-04-07T06:44:49;6.97;;;6.27;;
7485;SDS011;3784;54.098;9.998;2023-04-07T06:47:15;6.30;;;5.70;;
7485;SDS011;3784;54.098;9.998;2023-04-07T06:49:42;7.13;;;6.43;;
7485;SDS011;3784;54.098;9.998;2023-04-07T06:52:08;7.67;;;6.67;;
7485;SDS011;3784;54.098;9.998;2023-04-07T06:54:35;10.70;;;8.10;;
7485;SDS011;3784;54.098;9.998;2023-04-07T06:57:01;11.40;;;8.13;;
7485;SDS011;3784;54.098;9.998;2023-04-07T06:59:28;10.17;;;6.97;;
7485;SDS011;3784;54.098;9.998;2023-04-07T07:01:54;9.70;;;7.67;;
7485;SDS011;3784;54.098;9.998;2023-04-07T07:04:21;10.33;;;7.17;;
7485;SDS011;3784;54.098;9.998;2023-04-07T07:06:48;6.70;;;6.00;;
7485;SDS011;3784;54.098;9.998;2023-04-07T07:09:14;6.50;;;5.83;;
7485;SDS011;3784;54.098;9.998;2023-04-07T07:11:41;7.40;;;6.63;;
7485;SDS011;3784;54.098;9.998;2023-04-07T07:14:07;8.60;;;6.20;;
7485;SDS011;3784;54.098;9.998;2023-04-07T07:16:34;8.93;;;6.50;;
7485;SDS011;3784;54.098;9.998;2023-04-07T07:19:00;9.10;;;6.53;;
7485;SDS011;3784;54.098;9.998;2023-04-07T07:21:27;8.63;;;7.33;;
7485;SDS011;3784;54.098;9.998;2023-04-07T07:23:53;8.77;;;6.73;;
7485;SDS011;3784;54.098;9.998;2023-04-07T07:26:20;10.17;;;6.93;;
7485;SDS011;3784;54.098;9.998;2023-04-07T07:28:46;6.80;;;6.10;;
7485;SDS011;3784;54.098;9.998;2023-04-07T07:31:12;8.43;;;6.90;;
7485;SDS011;3784;54.098;9.998;2023-04-07T07:33:40;8.83;;;7.17;;
7485;SDS011;3784;54.098;9.998;2023-04-07T07:36:09;8.07;;;7.03;;
7485;SDS011;3784;54.098;9.998;2023-04-07T07:38:35;7.93;;;7.13;;
7485;SDS011;3784;54.098;9.998;2023-04-07T07:41:03;7.90;;;7.10;;
7485;SDS011;3784;54.098;9.998;2023-04-07T07:43:36;8.23;;;7.43;;
7485;SDS011;3784;54.098;9.998;2023-04-07T07:46:03;7.23;;;6.50;;
7485;SDS011;3784;54.098;9.998;2023-04-07T07:48:29;8.17;;;7.00;;
7485;SDS011;3784;54.098;9.998;2023-04-07T07:50:56;8.67;;;7.60;;
7485;SDS011;3784;54.098;9.998;2023-04-07T07:53:23;7.57;;;6.63;;
7485;SDS011;3784;54.098;9.998;2023-04-07T07:55:49;8.73;;;7.07;;
7485;SDS011;3784;54.098;9.998;2023-04-07T07:58:16;8.77;;;7.70;;
7485;SDS011;3784;54.098;9.998;2023-04-07T08:00:42;8.43;;;7.57;;
7485;SDS011;3784;54.098;9.998;2023-04-07T08:03:09;9.13;;;7.60;;
7485;SDS011;3784;54.098;9.998;2023-04-07T08:05:36;8.33;;;7.30;;
7485;SDS011;3784;54.098;9.998;2023-04-07T08:08:02;7.30;;;6.20;;
7485;SDS011;3784;54.098;9.998;2023-04-07T08:10:31;8.67;;;7.77;;
7485;SDS011;3784;54.098;9.998;2023-04-07T08:12:57;9.50;;;7.77;;
7485;SDS011;3784;54.098;9.998;2023-04-07T08:15:24;8.47;;;7.40;;
7485;SDS011;3784;54.098;9.998;2023-04-07T08:17:50;8.07;;;6.40;;
7485;SDS011;3784;54.098;9.998;2023-04-07T08:20:43;7.17;;;6.47;;
7485;SDS011;3784;54.098;9.998;2023-04-07T08:23:09;7.47;;;6.33;;
7485;SDS011;3784;54.098;9.998;2023-04-07T08:25:36;7.67;;;6.13;;
7485;SDS011;3784;54.098;9.998;2023-04-07T08:28:06;10.30;;;6.00;;
7485;SDS011;3784;54.098;9.998;2023-04-07T08:30:56;9.33;;;7.07;;
7485;SDS011;3784;54.098;9.998;2023-04-07T08:33:24;6.80;;;5.60;;
7485;SDS011;3784;54.098;9.998;2023-04-07T08:35:57;7.20;;;6.30;;
7485;SDS011;3784;54.098;9.998;2023-04-07T08:38:47;7.33;;;6.40;;
7485;SDS011;3784;54.098;9.998;2023-04-07T08:41:19;7.90;;;6.37;;
7485;SDS011;3784;54.098;9.998;2023-04-07T08:43:50;8.20;;;6.37;;
7485;SDS011;3784;54.098;9.998;2023-04-07T08:46:25;8.03;;;6.70;;
7485;SDS011;3784;54.098;9.998;2023-04-07T08:48:52;6.70;;;6.00;;
7485;SDS011;3784;54.098;9.998;2023-04-07T08:51:33;8.67;;;6.03;;
7485;SDS011;3784;54.098;9.998;2023-04-07T08:54:10;9.80;;;6.30;;
7485;SDS011;3784;54.098;9.998;2023-04-07T08:57:08;7.10;;;5.87;;
7485;SDS011;3784;54.098;9.998;2023-04-07T08:59:35;7.17;;;5.57;;
7485;SDS011;3784;54.098;9.998;2023-04-07T09:02:05;7.20;;;5.90;;
7485;SDS011;3784;54.098;9.998;2023-04-07T09:05:16;8.33;;;5.63;;
7485;SDS011;3784;54.098;9.998;2023-04-07T09:11:44;7.90;;;5.30;;
7485;SDS011;3784;54.098;9.998;2023-04-07T09:14:10;6.23;;;4.80;;
7485;SDS011;3784;54.098;9.998;2023-04-07T09:16:38;8.80;;;5.00;;
7485;SDS011;3784;54.098;9.998;2023-04-07T09:19:06;6.47;;;4.83;;
7485;SDS011;3784;54.098;9.998;2023-04-07T09:21:48;4.90;;;4.30;;
7485;SDS011;3784;54.098;9.998;2023-04-07T09:24:19;5.33;;;4.23;;
7485;SDS011;3784;54.098;9.998;2023-04-07T09:27:13;5.90;;;5.20;;
7485;SDS011;3784;54.098;9.998;2023-04-07T09:29:45;5.80;;;4.30;;
7485;SDS011;3784;54.098;9.998;2023-04-07T09:32:35;5.87;;;4.70;;
7485;SDS011;3784;54.098;9.998;2023-04-07T09:35:08;5.30;;;4.47;;
7485;SDS011;3784;54.098;9.998;2023-04-07T09:37:36;5.97;;;4.80;;
7485;SDS011;3784;54.098;9.998;2023-04-07T09:40:24;5.43;;;4.40;;
7485;SDS011;3784;54.098;9.998;2023-04-07T09:42:53;5.67;;;4.40;;
7485;SDS011;3784;54.098;9.998;2023-04-07T09:45:28;4.47;;;4.07;;
7485;SDS011;3784;54.098;9.998;2023-04-07T09:48:16;4.77;;;4.27;;
7485;SDS011;3784;54.098;9.998;2023-04-07T09:53:49;4.60;;;4.07;;
7485;SDS011;3784;54.098;9.998;2023-04-07T09:56:51;4.67;;;4.17;;
7485;SDS011;3784;54.098;9.998;2023-04-07T09:59:37;4.53;;;3.60;;
7485;SDS011;3784;54.098;9.998;2023-04-07T10:02:10;4.43;;;3.77;;
7485;SDS011;3784;54.098;9.998;2023-04-07T10:04:37;4.43;;;3.63;;
7485;SDS011;3784;54.098;9.998;2023-04-07T10:07:08;6.47;;;3.90;;
7485;SDS011;3784;54.098;9.998;2023-04-07T10:09:39;5.57;;;4.10;;
7485;SDS011;3784;54.098;9.998;2023-04-07T10:12:08;5.77;;;4.50;;
7485;SDS011;3784;54.098;9.998;2023-04-07T10:14:37;5.07;;;3.40;;
7485;SDS011;3784;54.098;9.998;2023-04-07T10:17:05;4.67;;;3.87;;
7485;SDS011;3784;54.098;9.998;2023-04-07T10:19:32;4.70;;;4.07;;
7485;SDS011;3784;54.098;9.998;2023-04-07T10:22:00;4.10;;;3.60;;
7485;SDS011;3784;54.098;9.998;2023-04-07T10:27:18;4.43;;;3.93;;
7485;SDS011;3784;54.098;9.998;2023-04-07T10:29:48;5.13;;;4.17;;
7485;SDS011;3784;54.098;9.998;2023-04-07T10:32:16;4.70;;;3.93;;
7485;SDS011;3784;54.098;9.998;2023-04-07T10:37:16;4.80;;;3.80;;
7485;SDS011;3784;54.098;9.998;2023-04-07T10:39:46;6.17;;;4.13;;
7485;SDS011;3784;54.098;9.998;2023-04-07T10:45:06;4.67;;;4.17;;
7485;SDS011;3784;54.098;9.998;2023-04-07T10:48:21;3.80;;;3.40;;
7485;SDS011;3784;54.098;9.998;2023-04-07T10:50:28;4.57;;;4.00;;
7485;SDS011;3784;54.098;9.998;2023-04-07T10:53:05;4.30;;;3.90;;
7485;SDS011;3784;54.098;9.998;2023-04-07T10:55:44;3.97;;;3.50;;
7485;SDS011;3784;54.098;9.998;2023-04-07T11:00:39;4.47;;;3.23;;
7485;SDS011;3784;54.098;9.998;2023-04-07T11:03:14;4.63;;;3.23;;
7485;SDS011;3784;54.098;9.998;2023-04-07T11:05:42;3.80;;;2.83;;
7485;SDS011;3784;54.098;9.998;2023-04-07T11:08:09;4.33;;;3.10;;
7485;SDS011;3784;54.098;9.998;2023-04-07T11:10:37;5.80;;;2.83;;
7485;SDS011;3784;54.098;9.998;2023-04-07T11:13:07;3.70;;;2.70;;
7485;SDS011;3784;54.098;9.998;2023-04-07T11:15:37;2.93;;;2.63;;
7485;SDS011;3784;54.098;9.998;2023-04-07T11:20:39;2.67;;;2.47;;
7485;SDS011;3784;54.098;9.998;2023-04-07T11:23:13;3.80;;;2.53;;
7485;SDS011;3784;54.098;9.998;2023-04-07T11:25:44;3.20;;;2.40;;
7485;SDS011;3784;54.098;9.998;2023-04-07T11:28:21;3.17;;;2.50;;
7485;SDS011;3784;54.098;9.998;2023-04-07T11:30:53;2.97;;;2.10;;
7485;SDS011;3784;54.098;9.998;2023-04-07T11:33:26;2.13;;;1.90;;
7485;SDS011;3784;54.098;9.998;2023-04-07T11:35:58;2.47;;;2.10;;
7485;SDS011;3784;54.098;9.998;2023-04-07T11:38:36;2.33;;;1.83;;
7485;SDS011;3784;54.098;9.998;2023-04-07T11:41:10;2.63;;;1.80;;
7485;SDS011;3784;54.098;9.998;2023-04-07T11:43:39;2.83;;;2.00;;
7485;SDS011;3784;54.098;9.998;2023-04-07T11:46:13;1.70;;;1.60;;
7485;SDS011;3784;54.098;9.998;2023-04-07T11:48:44;3.27;;;1.97;;
7485;SDS011;3784;54.098;9.998;2023-04-07T11:51:18;2.30;;;1.90;;
7485;SDS011;3784;54.098;9.998;2023-04-07T11:53:55;2.67;;;2.03;;
7485;SDS011;3784;54.098;9.998;2023-04-07T11:56:23;1.70;;;1.60;;
7485;SDS011;3784;54.098;9.998;2023-04-07T11:58:53;4.00;;;1.87;;
7485;SDS011;3784;54.098;9.998;2023-04-07T12:01:21;2.63;;;1.90;;
7485;SDS011;3784;54.098;9.998;2023-04-07T12:03:56;2.70;;;1.90;;
7485;SDS011;3784;54.098;9.998;2023-04-07T12:08:56;2.33;;;1.70;;
7485;SDS011;3784;54.098;9.998;2023-04-07T12:11:22;1.70;;;1.60;;
7485;SDS011;3784;54.098;9.998;2023-04-07T12:13:50;3.17;;;1.77;;
7485;SDS011;3784;54.098;9.998;2023-04-07T12:16:17;2.37;;;1.97;;
7485;SDS011;3784;54.098;9.998;2023-04-07T12:18:44;1.73;;;1.57;;
7485;SDS011;3784;54.098;9.998;2023-04-07T12:21:11;2.00;;;1.80;;
7485;SDS011;3784;54.098;9.998;2023-04-07T12:23:37;2.37;;;2.07;;
7485;SDS011;3784;54.098;9.998;2023-04-07T12:26:04;3.20;;;2.30;;
7485;SDS011;3784;54.098;9.998;2023-04-07T12:28:30;1.90;;;1.77;;
7485;SDS011;3784;54.098;9.998;2023-04-07T12:30:56;2.53;;;1.67;;
7485;SDS011;3784;54.098;9.998;2023-04-07T12:33:24;2.47;;;1.80;;
7485;SDS011;3784;54.098;9.998;2023-04-07T12:35:50;1.77;;;1.67;;
7485;SDS011;3784;54.098;9.998;2023-04-07T12:38:17;1.90;;;1.70;;
7485;SDS011;3784;54.098;9.998;2023-04-07T12:40:43;2.00;;;1.80;;
7485;SDS011;3784;54.098;9.998;2023-04-07T12:43:10;2.20;;;2.00;;
7485;SDS011;3784;54.098;9.998;2023-04-07T12:45:37;2.27;;;2.07;;
7485;SDS011;3784;54.098;9.998;2023-04-07T12:48:03;2.40;;;2.10;;
7485;SDS011;3784;54.098;9.998;2023-04-07T12:50:30;2.33;;;1.90;;
7485;SDS011;3784;54.098;9.998;2023-04-07T12:52:57;2.83;;;2.10;;
7485;SDS011;3784;54.098;9.998;2023-04-07T12:55:28;1.97;;;1.80;;
7485;SDS011;3784;54.098;9.998;2023-04-07T12:57:58;2.20;;;1.87;;
7485;SDS011;3784;54.098;9.998;2023-04-07T13:00:25;3.10;;;1.90;;
7485;SDS011;3784;54.098;9.998;2023-04-07T13:02:52;3.57;;;1.80;;
7485;SDS011;3784;54.098;9.998;2023-04-07T13:05:18;2.30;;;1.90;;
7485;SDS011;3784;54.098;9.998;2023-04-07T13:07:45;2.33;;;2.00;;
7485;SDS011;3784;54.098;9.998;2023-04-07T13:10:14;2.23;;;2.03;;
7485;SDS011;3784;54.098;9.998;2023-04-07T13:12:41;2.60;;;2.20;;
7485;SDS011;3784;54.098;9.998;2023-04-07T13:15:07;2.60;;;2.40;;
7485;SDS011;3784;54.098;9.998;2023-04-07T13:17:34;3.13;;;2.57;;
7485;SDS011;3784;54.098;9.998;2023-04-07T13:20:04;2.80;;;2.60;;
7485;SDS011;3784;54.098;9.998;2023-04-07T13:22:31;3.27;;;2.50;;
7485;SDS011;3784;54.098;9.998;2023-04-07T13:25:00;2.57;;;2.37;;
7485;SDS011;3784;54.098;9.998;2023-04-07T13:27:27;3.13;;;2.70;;
7485;SDS011;3784;54.098;9.998;2023-04-07T13:29:54;2.60;;;2.40;;
7485;SDS011;3784;54.098;9.998;2023-04-07T13:32:20;3.40;;;2.30;;
7485;SDS011;3784;54.098;9.998;2023-04-07T13:34:47;2.87;;;2.63;;
7485;SDS011;3784;54.098;9.998;2023-04-07T13:37:14;2.37;;;2.17;;
7485;SDS011;3784;54.098;9.998;2023-04-07T13:39:41;4.80;;;2.60;;
7485;SDS011;3784;54.098;9.998;2023-04-07T13:42:08;2.70;;;2.50;;
7485;SDS011;3784;54.098;9.998;2023-04-07T13:44:37;3.30;;;2.30;;
7485;SDS011;3784;54.098;9.998;2023-04-07T13:47:05;3.23;;;2.70;;
7485;SDS011;3784;54.098;9.998;2023-04-07T13:49:31;3.70;;;2.40;;
7485;SDS011;3784;54.098;9.998;2023-04-07T13:51:58;3.90;;;2.70;;
7485;SDS011;3784;54.098;9.998;2023-04-07T13:54:24;2.87;;;2.67;;
7485;SDS011;3784;54.098;9.998;2023-04-07T13:56:54;2.97;;;2.30;;
7485;SDS011;3784;54.098;9.998;2023-04-07T13:59:22;4.77;;;2.50;;
7485;SDS011;3784;54.098;9.998;2023-04-07T14:02:07;3.77;;;2.63;;
7485;SDS011;3784;54.098;9.998;2023-04-07T14:04:34;4.77;;;2.80;;
7485;SDS011;3784;54.098;9.998;2023-04-07T14:07:00;3.30;;;2.93;;
7485;SDS011;3784;54.098;9.998;2023-04-07T14:09:27;4.30;;;2.80;;
7485;SDS011;3784;54.098;9.998;2023-04-07T14:11:53;4.20;;;2.90;;
7485;SDS011;3784;54.098;9.998;2023-04-07T14:14:20;2.90;;;2.63;;
7485;SDS011;3784;54.098;9.998;2023-04-07T14:16:46;3.10;;;2.80;;
7485;SDS011;3784;54.098;9.998;2023-04-07T14:19:15;3.37;;;2.77;;
7485;SDS011;3784;54.098;9.998;2023-04-07T14:21:42;4.57;;;3.53;;
7485;SDS011;3784;54.098;9.998;2023-04-07T14:24:08;4.43;;;2.97;;
7485;SDS011;3784;54.098;9.998;2023-04-07T14:26:35;3.00;;;2.70;;
7485;SDS011;3784;54.098;9.998;2023-04-07T14:29:02;4.50;;;3.00;;
7485;SDS011;3784;54.098;9.998;2023-04-07T14:31:29;7.47;;;3.27;;
7485;SDS011;3784;54.098;9.998;2023-04-07T14:33:56;5.20;;;3.07;;
7485;SDS011;3784;54.098;9.998;2023-04-07T14:36:23;3.33;;;2.90;;
7485;SDS011;3784;54.098;9.998;2023-04-07T14:38:49;3.27;;;2.97;;
7485;SDS011;3784;54.098;9.998;2023-04-07T14:41:16;3.63;;;3.10;;
7485;SDS011;3784;54.098;9.998;2023-04-07T14:43:43;3.27;;;2.97;;
7485;SDS011;3784;54.098;9.998;2023-04-07T14:46:09;4.73;;;3.80;;
7485;SDS011;3784;54.098;9.998;2023-04-07T14:48:37;4.53;;;3.27;;
7485;SDS011;3784;54.098;9.998;2023-04-07T14:51:09;4.13;;;3.20;;
7485;SDS011;3784;54.098;9.998;2023-04-07T14:53:37;3.80;;;3.17;;
7485;SDS011;3784;54.098;9.998;2023-04-07T14:56:04;4.00;;;3.43;;
7485;SDS011;3784;54.098;9.998;2023-04-07T14:58:36;4.20;;;2.63;;
7485;SDS011;3784;54.098;9.998;2023-04-07T15:01:04;4.60;;;2.80;;
7485;SDS011;3784;54.098;9.998;2023-04-07T15:03:31;2.90;;;2.60;;
7485;SDS011;3784;54.098;9.998;2023-04-07T15:06:00;2.67;;;2.47;;
7485;SDS011;3784;54.098;9.998;2023-04-07T15:08:26;2.67;;;2.47;;
7485;SDS011;3784;54.098;9.998;2023-04-07T15:10:53;3.67;;;3.10;;
7485;SDS011;3784;54.098;9.998;2023-04-07T15:13:19;3.97;;;2.70;;
7485;SDS011;3784;54.098;9.998;2023-04-07T15:15:46;3.07;;;2.77;;
7485;SDS011;3784;54.098;9.998;2023-04-07T15:18:12;5.03;;;2.50;;
7485;SDS011;3784;54.098;9.998;2023-04-07T15:20:39;4.77;;;2.90;;
7485;SDS011;3784;54.098;9.998;2023-04-07T15:23:06;6.40;;;3.10;;
7485;SDS011;3784;54.098;9.998;2023-04-07T15:25:33;3.00;;;2.70;;
7485;SDS011;3784;54.098;9.998;2023-04-07T15:28:06;3.63;;;2.80;;
7485;SDS011;3784;54.098;9.998;2023-04-07T15:30:37;3.70;;;2.80;;
7485;SDS011;3784;54.098;9.998;2023-04-07T15:33:06;3.07;;;2.70;;
7485;SDS011;3784;54.098;9.998;2023-04-07T15:35:36;4.10;;;3.30;;
7485;SDS011;3784;54.098;9.998;2023-04-07T15:38:04;4.20;;;2.67;;
7485;SDS011;3784;54.098;9.998;2023-04-07T15:40:36;2.60;;;2.40;;
7485;SDS011;3784;54.098;9.998;2023-04-07T15:47:32;3.90;;;3.03;;
7485;SDS011;3784;54.098;9.998;2023-04-07T15:54:18;2.90;;;2.70;;
7485;SDS011;3784;54.098;9.998;2023-04-07T16:03:53;4.70;;;4.30;;
7485;SDS011;3784;54.098;9.998;2023-04-07T16:06:20;4.63;;;3.63;;
7485;SDS011;3784;54.098;9.998;2023-04-07T16:08:48;4.37;;;3.97;;
7485;SDS011;3784;54.098;9.998;2023-04-07T16:11:14;4.87;;;3.60;;